Flight Track Log - Related Links

Times and Time Zones

All times are in EDT time to prevent confusion due to time zone crossing. See the SWA318 flight status page for this flight to view local times or setup timezone preferences in your user account.

Time Position Orientation Groundspeed Altitude Reporting Facility
EDT Latitude Longitude Course Direction KTS MPH feet Rate Location/Type
Mon 08:38:52 AM 28.4000 -81.3000 204° Southwest 151 174 900  Level Orlando TRACON
Mon 08:39:40 AM 28.3667 -81.3167 204° Southwest 208 239 2,500 2,056 Climbing Orlando TRACON
Mon 08:40:40 AM 28.3500 -81.4000 257° West 280 322 4,600 3,143 Climbing Orlando TRACON
Mon 08:41:46 AM 28.3500 -81.4833 270° West 296 341 9,100 3,126 Climbing Orlando TRACON
Mon 08:44:15 AM 28.3556 -81.7581 271° West 368 423 15,800 2,785 Climbing Jacksonville Center
Mon 08:45:15 AM 28.3817 -81.8828 283° West 388 447 18,800 2,876 Climbing Jacksonville Center
Mon 08:46:16 AM 28.4183 -82.0239 286° West 407 468 21,600 2,500 Climbing Jacksonville Center
Mon 08:47:15 AM 28.4442 -82.1442 284° West 432 497 23,800 2,250 Climbing Jacksonville Center
Mon 08:48:16 AM 28.4781 -82.2808 286° West 443 510 26,100 2,132 Climbing Jacksonville Center
Mon 08:49:16 AM 28.5767 -82.3631 324° Northwest 414 476 28,100 2,100 Climbing Jacksonville Center
Mon 08:50:16 AM 28.6978 -82.4025 344° North 419 482 30,300 2,350 Climbing Jacksonville Center
Mon 08:51:16 AM 28.8150 -82.4472 342° North 426 490 32,800 2,300 Climbing Jacksonville Center
Mon 08:52:16 AM 28.9319 -82.4939 341° North 437 503 34,900 2,050 Climbing Jacksonville Center
Mon 08:53:16 AM 29.0447 -82.5386 341° North 437 503 36,900 1,815 Climbing Jacksonville Center
Mon 08:54:15 AM 29.1575 -82.5833 341° North 432 497 38,500 1,500 Climbing Jacksonville Center
Mon 08:55:16 AM 29.2683 -82.6258 342° North 421 484 39,900 750 Climbing Jacksonville Center
Mon 08:56:15 AM 29.3792 -82.6686 341° North 421 484 40,000 50 Climbing Jacksonville Center
Mon 08:57:16 AM 29.5022 -82.7231 339° North 421 484 40,000  Level Jacksonville Center
Mon 08:58:16 AM 29.6150 -82.7683 341° North 431 496 40,000  Level Jacksonville Center
Mon 08:59:16 AM 29.7236 -82.8111 341° North 425 489 40,000  Level Jacksonville Center
Mon 09:00:16 AM 29.8364 -82.8542 342° North 425 489 40,000  Level Jacksonville Center
Mon 09:01:16 AM 29.9492 -82.8997 341° North 425 489 40,000  Level Jacksonville Center
Mon 09:02:16 AM 30.0597 -82.9406 342° North 425 489 40,000  Level Jacksonville Center
Mon 09:03:16 AM 30.1664 -82.9839 341° North 420 483 40,000  Level Jacksonville Center
Mon 09:04:16 AM 30.2769 -83.0272 341° North 420 483 40,000  Level Jacksonville Center
Mon 09:05:16 AM 30.3875 -83.0731 340° North 415 478 40,000  Level Jacksonville Center
Mon 09:06:16 AM 30.4981 -83.1167 341° North 415 478 40,000  Level Jacksonville Center
Mon 09:07:16 AM 30.6067 -83.1628 340° North 410 472 40,000  Level Jacksonville Center
Mon 09:08:16 AM 30.7172 -83.2067 341° North 410 472 40,000  Level Jacksonville Center
Mon 09:09:16 AM 30.8089 -83.2433 341° North 410 472 40,000  Level Jacksonville Center
Mon 09:10:16 AM 30.9256 -83.2947 339° North 410 472 40,000  Level Jacksonville Center
Mon 09:11:16 AM 31.0383 -83.3386 342° North 410 472 40,000  Level Jacksonville Center
Mon 09:12:16 AM 31.1489 -83.3853 340° North 415 478 40,000  Level Jacksonville Center
Mon 09:13:16 AM 31.2614 -83.4322 340° North 415 478 40,000  Level Jacksonville Center
Mon 09:15:21 AM 31.5078 -83.5347 340° North 415 478 40,000  Level Atlanta Center
Mon 09:16:21 AM 31.6164 -83.5756 342° North 415 478 40,000  Level Atlanta Center
Mon 09:17:21 AM 31.7333 -83.6214 342° North 421 484 40,000  Level Atlanta Center
Mon 09:18:21 AM 31.8378 -83.6647 341° North 432 497 40,000  Level Atlanta Center
Mon 09:19:21 AM 31.9467 -83.7133 339° North 426 490 40,000  Level Atlanta Center
Mon 09:20:21 AM 32.0553 -83.7619 339° North 420 483 40,000  Level Atlanta Center
Mon 09:21:21 AM 32.1658 -83.8083 340° North 415 478 40,000  Level Atlanta Center
Mon 09:22:21 AM 32.2744 -83.8547 340° North 409 471 40,000  Level Atlanta Center
Mon 09:23:21 AM 32.3831 -83.9011 340° North 409 471 40,000  Level Atlanta Center
Mon 09:24:21 AM 32.4939 -83.9478 340° North 409 471 40,000  Level Atlanta Center
Mon 09:25:21 AM 32.6044 -83.9944 340° North 409 471 40,000  Level Atlanta Center
Mon 09:26:21 AM 32.7150 -84.0414 340° North 409 471 40,000  Level Atlanta Center
Mon 09:27:21 AM 32.8258 -84.0883 340° North 409 471 40,000  Level Atlanta Center
Mon 09:28:21 AM 32.9364 -84.1378 339° North 409 471 40,000  Level Atlanta Center
Mon 09:29:21 AM 33.0469 -84.1850 340° North 409 471 40,000  Level Atlanta Center
Mon 09:30:21 AM 33.1553 -84.2322 340° North 409 471 40,000  Level Atlanta Center
Mon 09:31:21 AM 33.2639 -84.2797 340° North 409 471 40,000  Level Atlanta Center
Mon 09:32:21 AM 33.3847 -84.3300 341° North 409 471 40,000  Level Atlanta Center
Mon 09:33:21 AM 33.4911 -84.3800 339° North 409 471 40,000  Level Atlanta Center
Mon 09:34:21 AM 33.5953 -84.4228 341° North 420 483 40,000  Level Atlanta Center
Mon 09:35:21 AM 33.7017 -84.4708 339° North 420 483 40,000  Level Atlanta Center
Mon 09:36:21 AM 33.8247 -84.5264 339° North 420 483 40,000  Level Atlanta Center
Mon 09:37:21 AM 33.9350 -84.5747 340° North 420 483 40,000  Level Atlanta Center
Mon 09:38:21 AM 34.0433 -84.6231 340° North 425 489 40,000  Level Atlanta Center
Mon 09:39:21 AM 34.1475 -84.6664 341° North 432 497 40,000  Level Atlanta Center
Mon 09:40:21 AM 34.2578 -84.7175 339° North 427 491 40,000 -300 Level Atlanta Center
Mon 09:41:21 AM 34.3658 -84.7964 329° Northwest 411 473 39,400 -750 Descending Atlanta Center
Mon 09:42:21 AM 34.4636 -84.8703 328° Northwest 417 480 38,500 -700 Descending Atlanta Center
Mon 09:43:21 AM 34.5631 -84.9444 328° Northwest 422 486 38,000 -400 Descending Atlanta Center
Mon 09:44:21 AM 34.6608 -85.0161 329° Northwest 417 480 37,700 -600 Descending Atlanta Center
Mon 09:45:21 AM 34.7456 -85.0853 326° Northwest 410 472 36,800 -900 Descending Atlanta Center
Mon 09:46:21 AM 34.8453 -85.1650 327° Northwest 416 479 35,900 -950 Descending Atlanta Center
Mon 09:47:21 AM 34.9447 -85.2425 327° Northwest 421 484 34,900 -1,636 Descending Atlanta Center
Mon 09:49:50 AM 35.1983 -85.4581 325° Northwest 434 499 30,200 -2,067 Descending Memphis Center
Mon 09:50:50 AM 35.2797 -85.5603 314° West 422 486 27,700 -2,450 Descending Memphis Center
Mon 09:51:50 AM 35.3586 -85.6650 313° West 422 486 25,300 -2,400 Descending Memphis Center
Mon 09:52:50 AM 35.4353 -85.7628 314° West 411 473 22,900 -2,300 Descending Memphis Center
Mon 09:53:50 AM 35.5097 -85.8556 315° West 400 460 20,700 -2,250 Descending Memphis Center
Mon 09:54:50 AM 35.5819 -85.9511 313° West 389 448 18,400 -2,200 Descending Memphis Center
Mon 09:55:50 AM 35.6478 -86.0419 312° West 376 433 16,300 -2,150 Descending Memphis Center
Mon 09:56:50 AM 35.7175 -86.1306 314° West 367 422 14,100 -2,200 Descending Memphis Center
Mon 09:57:50 AM 35.7808 -86.2167 312° West 352 405 11,900 -1,950 Descending Memphis Center
Mon 09:58:50 AM 35.8442 -86.3008 313° West 341 392 10,200 -1,450 Descending Memphis Center
Mon 09:59:50 AM 35.9006 -86.3747 313° West 318 366 9,000 -1,250 Descending Memphis Center
Mon 10:00:50 AM 35.9486 -86.4392 313° West 297 342 7,700 -1,300 Descending Memphis Center
Mon 10:01:50 AM 36.0028 -86.5083 314° West 284 327 6,400 -1,050 Descending Memphis Center
Mon 10:02:50 AM 36.0528 -86.5728 314° West 273 314 5,600 -700 Descending Memphis Center
Mon 10:03:50 AM 36.1192 -86.5567 11° North 213 245 5,000 -350 Descending Memphis Center
Mon 10:04:50 AM 36.1767 -86.5311 20° North 213 245 4,900 -500 Descending Memphis Center
Mon 10:05:50 AM 36.2289 -86.5364 355° North 191 220 4,000 -950 Descending Memphis Center
Mon 10:06:50 AM 36.2347 -86.5925 277° West 138 159 3,000 -1,000 Descending Memphis Center
Mon 10:07:50 AM 36.2028 -86.6328 226° Southwest 138 159 2,000 -1,000 Descending Memphis Center
Mon 10:10:00 AM 36.1245 -86.6782 205° Southwest  Level Estimated
Mon 10:17:00 AM 36.1245 -86.6782 302° West  Level Estimated
Mon 10:18:00 AM 36.1245 -86.6782 302° West  Level Estimated
Mon 10:19:00 AM 36.1245 -86.6782 302° West  Level Estimated
Mon 10:20:00 AM 36.1245 -86.6782 302° West  Level Estimated
Mon 10:21:00 AM 36.1245 -86.6782 302° West  Level Estimated
Mon 10:22:00 AM 36.1245 -86.6782 302° West  Level Estimated
Mon 10:23:00 AM 36.1245 -86.6782 302° West  Level Estimated

Login

Don't have an account? Register now (free) for customized features, flight alerts, and more!